createdAt,value
2023-03-30T00:03:59.531Z,87.81
2023-03-30T00:09:06.421Z,88.64
2023-03-30T00:14:09.561Z,89.58
2023-03-30T00:19:13.939Z,89.91
2023-03-30T00:24:17.029Z,90.60
2023-03-30T00:29:20.601Z,90.92
2023-03-30T00:34:25.842Z,90.82
2023-03-30T00:39:29.400Z,91.14
2023-03-30T00:45:07.650Z,91.72
2023-03-30T00:50:12.938Z,91.76
2023-03-30T00:55:18.485Z,91.75
2023-03-30T01:00:24.058Z,91.67
2023-03-30T01:05:28.649Z,91.93
2023-03-30T01:10:33.160Z,92.50
2023-03-30T01:15:43.271Z,92.17
2023-03-30T01:21:24.243Z,92.19
2023-03-30T01:26:54.000Z,92.15
2023-03-30T01:32:35.695Z,92.03
2023-03-30T01:37:56.458Z,92.19
2023-03-30T01:43:17.080Z,91.58
2023-03-30T01:48:45.642Z,92.14
2023-03-30T01:54:04.407Z,92.10
2023-03-30T01:59:34.070Z,92.30
2023-03-30T02:04:41.146Z,92.01
2023-03-30T02:09:47.445Z,92.52
2023-03-30T02:14:52.898Z,93.09
2023-03-30T02:19:58.427Z,93.16
2023-03-30T02:25:03.169Z,93.63
2023-03-30T02:30:08.366Z,93.82
2023-03-30T02:35:40.201Z,95.05
2023-03-30T02:41:14.854Z,94.79
2023-03-30T02:46:21.005Z,94.91
2023-03-30T02:51:50.577Z,94.85
2023-03-30T02:56:58.465Z,94.30
2023-03-30T03:02:16.203Z,93.21
2023-03-30T03:07:28.222Z,92.42
2023-03-30T03:12:32.079Z,91.70
2023-03-30T03:17:36.188Z,90.41
2023-03-30T03:22:43.672Z,89.63
2023-03-30T03:27:47.575Z,89.90
2023-03-30T03:32:57.420Z,90.09
2023-03-30T03:38:03.829Z,90.63
2023-03-30T03:43:07.202Z,91.08
2023-03-30T03:48:10.480Z,91.99
2023-03-30T03:53:19.864Z,92.51
2023-03-30T03:58:25.677Z,92.81
2023-03-30T04:03:29.794Z,92.43
2023-03-30T04:08:33.454Z,92.17
2023-03-30T04:13:53.768Z,91.61
2023-03-30T04:19:13.022Z,91.34
2023-03-30T04:24:36.030Z,90.37
2023-03-30T04:30:02.679Z,89.77
2023-03-30T04:35:24.501Z,89.61
2023-03-30T04:41:06.718Z,89.81
2023-03-30T04:46:37.387Z,89.56
2023-03-30T04:51:59.497Z,89.89
2023-03-30T04:57:22.788Z,90.05
2023-03-30T05:02:37.986Z,90.08
2023-03-30T05:07:54.465Z,90.29
2023-03-30T05:13:19.784Z,90.14
2023-03-30T05:18:32.001Z,89.25
2023-03-30T05:23:53.809Z,88.09
2023-03-30T05:29:25.322Z,87.25
2023-03-30T05:34:37.570Z,85.86
2023-03-30T05:40:00.215Z,84.54
2023-03-30T05:45:20.675Z,83.05
2023-03-30T05:51:02.671Z,80.88
2023-03-30T05:56:27.694Z,78.82
2023-03-30T06:01:53.476Z,76.19
2023-03-30T06:06:57.241Z,74.01
2023-03-30T06:12:00.795Z,68.44
2023-03-30T06:17:09.103Z,58.30
2023-03-30T06:22:12.456Z,54.24
2023-03-30T06:27:22.243Z,49.83
2023-03-30T06:32:27.376Z,45.37
2023-03-30T06:37:37.198Z,46.35
2023-03-30T06:42:44.362Z,44.53
2023-03-30T06:48:03.915Z,42.60
2023-03-30T06:53:10.222Z,40.93
2023-03-30T06:58:19.181Z,41.99
2023-03-30T07:03:24.221Z,40.06
2023-03-30T07:08:43.410Z,35.84
2023-03-30T07:13:51.805Z,34.47
2023-03-30T07:18:56.178Z,35.25
2023-03-30T07:24:03.603Z,36.73
2023-03-30T07:29:13.235Z,35.26
2023-03-30T07:34:21.597Z,34.92
2023-03-30T07:39:33.438Z,33.58
2023-03-30T07:44:40.838Z,35.57
2023-03-30T07:49:51.711Z,34.23
2023-03-30T07:54:56.782Z,33.77
2023-03-30T08:00:10.926Z,36.13
2023-03-30T08:05:40.981Z,33.79
2023-03-30T08:10:55.317Z,33.94
2023-03-30T08:16:01.033Z,32.83
2023-03-30T08:21:05.375Z,33.54
2023-03-30T08:26:09.127Z,32.96
2023-03-30T08:31:13.099Z,31.67
2023-03-30T08:36:17.405Z,27.74
2023-03-30T08:41:29.362Z,26.58
2023-03-30T08:46:34.941Z,26.38
2023-03-30T08:51:39.704Z,23.39
2023-03-30T08:56:56.287Z,26.61
2023-03-30T09:02:11.728Z,31.57
2023-03-30T09:07:22.848Z,26.37
2023-03-30T09:12:34.600Z,27.33
2023-03-30T09:17:47.074Z,39.28
2023-03-30T09:22:52.850Z,37.98
2023-03-30T09:28:17.437Z,31.11
2023-03-30T09:33:37.541Z,27.60
2023-03-30T09:38:43.321Z,27.31
2023-03-30T09:43:48.078Z,25.21
2023-03-30T09:48:52.987Z,27.68
2023-03-30T09:54:07.591Z,26.65
2023-03-30T09:59:46.152Z,26.87
2023-03-30T10:04:53.216Z,25.17
2023-03-30T10:10:00.068Z,25.18
2023-03-30T10:15:04.907Z,23.47
2023-03-30T10:20:25.871Z,21.91
2023-03-30T10:25:31.843Z,21.29
2023-03-30T10:30:36.781Z,17.49
2023-03-30T10:35:41.676Z,21.66
2023-03-30T10:40:47.516Z,18.53
2023-03-30T10:45:54.894Z,21.44
2023-03-30T10:51:26.248Z,23.29
2023-03-30T10:57:04.416Z,24.75
2023-03-30T11:02:40.344Z,22.50
2023-03-30T11:07:55.251Z,26.22
2023-03-30T11:13:12.067Z,24.67
2023-03-30T11:18:36.556Z,26.65
2023-03-30T11:24:00.299Z,25.21
2023-03-30T11:29:14.425Z,25.90
2023-03-30T11:34:55.224Z,27.64
2023-03-30T11:40:18.953Z,26.73
2023-03-30T11:45:45.405Z,28.43
2023-03-30T11:50:58.920Z,28.28
2023-03-30T11:56:12.329Z,26.23
2023-03-30T12:01:19.402Z,28.77
2023-03-30T12:06:35.188Z,30.87
2023-03-30T12:12:04.200Z,29.79
2023-03-30T12:17:35.545Z,30.61
2023-03-30T12:22:53.670Z,28.91
2023-03-30T12:27:59.755Z,28.96
2023-03-30T12:33:13.346Z,29.71
2023-03-30T12:38:22.128Z,29.90
2023-03-30T12:43:43.957Z,28.62
2023-03-30T12:49:22.945Z,29.71
2023-03-30T12:54:32.616Z,28.71
2023-03-30T12:59:56.648Z,28.06
2023-03-30T13:05:00.634Z,28.88
2023-03-30T13:10:30.207Z,29.43
2023-03-30T13:15:58.229Z,32.43
2023-03-30T13:21:18.221Z,29.67
2023-03-30T13:26:34.450Z,35.06
2023-03-30T13:31:52.010Z,36.30
2023-03-30T13:37:22.417Z,37.15
2023-03-30T13:42:51.717Z,37.02
2023-03-30T13:48:12.290Z,35.36
2023-03-30T13:53:18.047Z,36.80
2023-03-30T13:58:35.541Z,36.92
2023-03-30T14:03:48.071Z,37.74
2023-03-30T14:09:14.878Z,38.43
2023-03-30T14:14:28.531Z,38.62
2023-03-30T14:19:47.713Z,39.83
2023-03-30T14:25:03.770Z,39.88
2023-03-30T14:30:24.018Z,38.72
2023-03-30T14:35:29.802Z,39.10
2023-03-30T14:40:39.941Z,39.87
2023-03-30T14:45:44.690Z,39.02
2023-03-30T14:50:50.344Z,40.22
2023-03-30T14:55:58.349Z,39.11
2023-03-30T15:01:09.262Z,39.51
2023-03-30T15:06:20.007Z,41.73
2023-03-30T15:11:28.072Z,42.75
2023-03-30T15:16:36.018Z,42.49
2023-03-30T15:21:40.940Z,44.79
2023-03-30T15:26:48.416Z,42.71
2023-03-30T15:32:15.296Z,43.99
2023-03-30T15:37:23.381Z,45.61
2023-03-30T15:42:33.121Z,44.23
2023-03-30T15:47:37.000Z,46.67
2023-03-30T15:52:45.591Z,46.06
2023-03-30T15:57:52.364Z,46.26
2023-03-30T16:03:00.585Z,45.14
2023-03-30T16:08:05.693Z,46.14
2023-03-30T16:13:12.160Z,46.65
2023-03-30T16:18:17.022Z,47.67
2023-03-30T16:23:21.693Z,48.38
2023-03-30T16:28:26.415Z,50.11
2023-03-30T16:33:30.092Z,51.94
2023-03-30T16:38:33.921Z,53.39
2023-03-30T16:43:38.627Z,54.60
2023-03-30T16:48:42.716Z,56.24
2023-03-30T16:53:48.057Z,57.77
2023-03-30T16:58:51.846Z,59.52
2023-03-30T17:03:55.898Z,61.32
2023-03-30T17:08:59.781Z,62.19
2023-03-30T17:14:03.399Z,64.63
2023-03-30T17:19:14.574Z,66.59
2023-03-30T17:24:18.140Z,68.23
2023-03-30T17:29:21.728Z,69.36
2023-03-30T17:34:25.129Z,70.15
2023-03-30T17:39:28.728Z,71.22
2023-03-30T17:44:34.217Z,72.67
2023-03-30T17:49:38.489Z,74.28
2023-03-30T17:54:43.009Z,75.37
2023-03-30T17:59:46.515Z,75.63
2023-03-30T18:04:51.226Z,76.90
2023-03-30T18:09:54.983Z,78.04
2023-03-30T18:14:58.212Z,78.63
2023-03-30T18:20:02.494Z,78.70
2023-03-30T18:25:06.396Z,79.18
2023-03-30T18:30:16.735Z,79.33
2023-03-30T18:35:22.022Z,80.92
2023-03-30T18:40:44.257Z,81.23
2023-03-30T18:45:49.964Z,81.86
2023-03-30T18:50:56.094Z,82.71
2023-03-30T18:56:01.286Z,83.39
2023-03-30T19:01:07.162Z,83.76
2023-03-30T19:06:14.465Z,84.47
2023-03-30T19:11:20.653Z,82.37
2023-03-30T19:16:24.546Z,83.86
2023-03-30T19:21:28.649Z,83.25
2023-03-30T19:26:32.420Z,82.15
2023-03-30T19:31:36.925Z,81.85
2023-03-30T19:36:40.251Z,81.42
2023-03-30T19:41:44.294Z,80.82
2023-03-30T19:46:49.144Z,80.35
2023-03-30T19:51:53.648Z,80.05
2023-03-30T19:56:58.058Z,79.46
2023-03-30T20:02:01.933Z,76.89
2023-03-30T20:07:06.758Z,77.23
2023-03-30T20:12:11.004Z,77.36
2023-03-30T20:17:15.060Z,77.40
2023-03-30T20:22:18.885Z,78.24
2023-03-30T20:27:22.087Z,78.86
2023-03-30T20:32:26.460Z,78.49
2023-03-30T20:37:29.665Z,78.40
2023-03-30T20:42:34.241Z,78.88
2023-03-30T20:47:38.402Z,79.34
2023-03-30T20:52:41.618Z,78.90
2023-03-30T20:57:44.842Z,78.38
2023-03-30T21:02:48.547Z,78.70
2023-03-30T21:07:54.348Z,79.34
2023-03-30T21:12:58.635Z,79.69
2023-03-30T21:18:02.473Z,79.73
2023-03-30T21:23:06.303Z,80.13
2023-03-30T21:28:09.921Z,79.00
2023-03-30T21:33:13.612Z,78.99
2023-03-30T21:38:17.702Z,79.11
2023-03-30T21:43:21.382Z,80.04
2023-03-30T21:48:26.007Z,79.77
2023-03-30T21:53:31.441Z,79.48
2023-03-30T21:58:35.529Z,77.37
2023-03-30T22:03:39.122Z,75.40
2023-03-30T22:08:45.513Z,75.69
2023-03-30T22:13:50.189Z,76.57
2023-03-30T22:18:54.938Z,76.97
2023-03-30T22:23:58.546Z,76.91
2023-03-30T22:29:02.308Z,76.75
2023-03-30T22:34:06.210Z,77.70
2023-03-30T22:39:10.952Z,78.14
2023-03-30T22:44:14.157Z,78.80
2023-03-30T22:49:17.992Z,79.50
2023-03-30T22:54:22.838Z,79.95
2023-03-30T22:59:27.091Z,80.13
2023-03-30T23:04:31.301Z,81.24
2023-03-30T23:09:34.942Z,81.79
2023-03-30T23:14:39.546Z,82.06
2023-03-30T23:19:46.198Z,82.06
2023-03-30T23:24:50.115Z,81.98
2023-03-30T23:29:53.816Z,81.59
2023-03-30T23:34:57.527Z,81.54
2023-03-30T23:40:04.089Z,82.62
2023-03-30T23:45:08.980Z,82.38
2023-03-30T23:50:12.569Z,82.17
2023-03-30T23:55:16.313Z,82.08
